This is the latest recevied weather packets stored in our database for station/object KD8FRE. If no packets are shown the sender has not sent any weather packets the latest 10 day(s).
| Time | Temp. | Humidity | Pressure | Rain* | Wind** | Luminosity | Snow |
|---|---|---|---|---|---|---|---|
| 1777915028 | 22.22° C | 30% | 1002.8 hPa | 0 mm | - | 565 W/m² | - |
| 1777914422 | 22.22° C | 29% | 1002.9 hPa | 0 mm | - | 539 W/m² | - |
| 1777914120 | 22.22° C | 33% | 1003 hPa | 0 mm | - | 676 W/m² | - |
| 1777913815 | 21.67° C | 31% | 1002.9 hPa | 0 mm | - | 664 W/m² | - |
| 1777913512 | 22.22° C | 33% | 1003.2 hPa | 0 mm | - | 678 W/m² | - |
| 1777913209 | 21.67° C | 34% | 1003.3 hPa | 0 mm | - | 736 W/m² | - |
| 1777912298 | 21.67° C | 35% | 1003.4 hPa | 0 mm | - | 629 W/m² | - |
| 1777911993 | 21.67° C | 36% | 1003.5 hPa | 0 mm | - | 381 W/m² | - |
| 1777908964 | 19.44° C | 44% | 1004 hPa | 0 mm | - | 505 W/m² | - |
| 1777908662 | 19.44° C | 44% | 1004 hPa | 0 mm | - | 511 W/m² | - |
| 1777907445 | 18.33° C | 50% | 1004.2 hPa | 0 mm | - | 219 W/m² | - |
| 1777906840 | 17.78° C | 51% | 1004.3 hPa | 0 mm | - | 530 W/m² | - |
| 1777905323 | 17.22° C | 54% | 1004.4 hPa | 0 mm | - | 72 W/m² | - |
| 1777901687 | 14.44° C | 63% | 1005.1 hPa | 0 mm | - | 214 W/m² | - |
| 1777901384 | 13.89° C | 63% | 1004.7 hPa | 0 mm | - | 287 W/m² | - |
| 1777901082 | 13.33° C | 65% | 1005.2 hPa | 0 mm | - | 264 W/m² | - |
| 1777900779 | 13.33° C | 65% | 1005.1 hPa | 0 mm | - | 302 W/m² | - |
| 1777900476 | 13.33° C | 65% | 1005.2 hPa | 0 mm | - | 275 W/m² | - |
| 1777900173 | 12.78° C | 67% | 1005.2 hPa | 0 mm | - | 264 W/m² | - |
| 1777899869 | 12.78° C | 66% | 1005.3 hPa | 0 mm | - | 265 W/m² | - |
| 1777898355 | 11.67° C | 70% | 1005.5 hPa | 0 mm | - | 130 W/m² | - |
| 1777898053 | 11.67° C | 70% | 1005.2 hPa | 0 mm | - | 81 W/m² | - |
| 1777897749 | 11.11° C | 71% | 1005.3 hPa | 0 mm | - | 129 W/m² | - |
| 1777897445 | 11.11° C | 71% | 1005.3 hPa | 0 mm | - | 127 W/m² | - |
| 1777897141 | 11.11° C | 72% | 1005.4 hPa | 0 mm | - | 96 W/m² | - |
* Rain latest hour (hover to see other rain measurements)
** Current wind speed in m/s (hover to see current wind gust speed)